RYR70MX EGPH-LIPE
Flight info
| Callsign | RYR70MX |
|---|---|
| Flight time | N/A |
| Altitude | 39000 |
| Route | TLA Y96 OTBUN DCT ERKIT N110 DOLAS DCT NAVPI DCT UMUPU DCT TUSUK DCT BATUB DCT TIRUL M738 NATAG DCT LORLO DCT LEDKO DCT ADOSA M738 BENUS |
| Aircraft | B38M/M-SADE3FGILRWY/SB1 |
Departure
| Time | 2026-04-23 18:02 |
|---|---|
| Airport | Edinburgh Airport (EGPH) |
Arrival
| Time | N/A |
|---|---|
| Airport | Bologna Guglielmo Marconi Airport (LIPE) |
| Time | Latitude | Longitude | Altitude | Speed | Heading |
|---|---|---|---|---|---|
| 2026-04-23 17:25 | 55.94769 | -3.35550 | 114 ft | 0 kts | 208° |
| 2026-04-23 17:26 | 55.94772 | -3.35548 | 119 ft | 0 kts | 208° |
| 2026-04-23 17:51 | 55.94788 | -3.35533 | 119 ft | 3 kts | 209° |
| 2026-04-23 17:52 | 55.94803 | -3.35512 | 119 ft | 3 kts | 234° |
| 2026-04-23 17:52 | 55.94807 | -3.35450 | 116 ft | 3 kts | 297° |
| 2026-04-23 17:52 | 55.94805 | -3.35445 | 115 ft | 0 kts | 298° |
| 2026-04-23 17:55 | 55.94813 | -3.35468 | 119 ft | 5 kts | 298° |
| 2026-04-23 17:56 | 55.94835 | -3.35542 | 119 ft | 8 kts | 298° |
| 2026-04-23 17:56 | 55.94907 | -3.35774 | 119 ft | 12 kts | 299° |
| 2026-04-23 17:56 | 55.94979 | -3.35858 | 117 ft | 14 kts | 9° |
| 2026-04-23 17:57 | 55.95070 | -3.35786 | 116 ft | 12 kts | 9° |
| 2026-04-23 17:57 | 55.95121 | -3.35866 | 115 ft | 11 kts | 303° |
| 2026-04-23 17:57 | 55.95202 | -3.36080 | 115 ft | 12 kts | 242° |
| 2026-04-23 17:58 | 55.95154 | -3.36223 | 117 ft | 15 kts | 238° |
| 2026-04-23 17:58 | 55.95098 | -3.36387 | 117 ft | 17 kts | 238° |
| 2026-04-23 17:58 | 55.95037 | -3.36565 | 115 ft | 19 kts | 238° |
| 2026-04-23 17:58 | 55.94963 | -3.36780 | 115 ft | 21 kts | 238° |
| 2026-04-23 17:59 | 55.94885 | -3.37015 | 116 ft | 23 kts | 239° |
| 2026-04-23 17:59 | 55.94797 | -3.37269 | 117 ft | 25 kts | 239° |
| 2026-04-23 17:59 | 55.94706 | -3.37546 | 118 ft | 27 kts | 237° |
| 2026-04-23 17:59 | 55.94606 | -3.37836 | 118 ft | 28 kts | 238° |
| 2026-04-23 18:00 | 55.94506 | -3.38133 | 117 ft | 28 kts | 238° |
| 2026-04-23 18:00 | 55.94414 | -3.38408 | 116 ft | 26 kts | 239° |
| 2026-04-23 18:00 | 55.94323 | -3.38675 | 115 ft | 21 kts | 238° |
| 2026-04-23 18:00 | 55.94284 | -3.38830 | 116 ft | 11 kts | 276° |
| 2026-04-23 18:01 | 55.94338 | -3.38926 | 115 ft | 12 kts | 329° |
| 2026-04-23 18:01 | 55.94408 | -3.38985 | 112 ft | 7 kts | 21° |
| 2026-04-23 18:01 | 55.94445 | -3.38887 | 116 ft | 21 kts | 58° |
| 2026-04-23 18:01 | 55.94681 | -3.38192 | 115 ft | 107 kts | 59° |
| 2026-04-23 18:02 | 55.95190 | -3.36693 | 223 ft | 164 kts | 59° |
| 2026-04-23 18:02 | 55.95795 | -3.34901 | 1088 ft | 169 kts | 59° |
| 2026-04-23 18:02 | 55.96575 | -3.33344 | 2096 ft | 170 kts | 42° |
| 2026-04-23 18:02 | 55.97484 | -3.31924 | 3008 ft | 177 kts | 42° |
| 2026-04-23 18:03 | 55.98430 | -3.30423 | 3832 ft | 191 kts | 43° |
| 2026-04-23 18:03 | 55.99471 | -3.28757 | 4536 ft | 211 kts | 44° |
| 2026-04-23 18:03 | 56.00608 | -3.26922 | 5272 ft | 230 kts | 43° |
| 2026-04-23 18:03 | 56.01830 | -3.24942 | 5990 ft | 249 kts | 43° |
| 2026-04-23 18:04 | 56.03077 | -3.22608 | 6737 ft | 264 kts | 59° |
| 2026-04-23 18:04 | 56.03583 | -3.19453 | 7305 ft | 278 kts | 93° |
| 2026-04-23 18:04 | 56.02994 | -3.16238 | 8207 ft | 274 kts | 127° |
| 2026-04-23 18:04 | 56.01544 | -3.14032 | 8980 ft | 279 kts | 155° |
| 2026-04-23 18:05 | 55.99683 | -3.13188 | 9821 ft | 279 kts | 181° |
| 2026-04-23 18:05 | 55.97804 | -3.13959 | 10635 ft | 280 kts | 202° |
| 2026-04-23 18:05 | 55.95882 | -3.14976 | 11158 ft | 298 kts | 192° |
| 2026-04-23 18:05 | 55.93748 | -3.15333 | 11511 ft | 320 kts | 177° |
| 2026-04-23 18:06 | 55.91519 | -3.14403 | 11857 ft | 341 kts | 156° |
| 2026-04-23 18:06 | 55.89478 | -3.12086 | 12332 ft | 355 kts | 146° |
| 2026-04-23 18:06 | 55.87372 | -3.09690 | 12982 ft | 361 kts | 149° |
| 2026-04-23 18:06 | 55.85237 | -3.07299 | 13711 ft | 365 kts | 148° |
| 2026-04-23 18:07 | 55.83078 | -3.04861 | 14398 ft | 370 kts | 148° |
| 2026-04-23 18:07 | 55.80892 | -3.02384 | 15054 ft | 376 kts | 148° |
| 2026-04-23 18:07 | 55.78672 | -2.99869 | 15728 ft | 380 kts | 148° |
| 2026-04-23 18:07 | 55.76437 | -2.97337 | 16410 ft | 383 kts | 148° |
| 2026-04-23 18:08 | 55.74944 | -2.95647 | 16841 ft | 385 kts | 148° |
| 2026-04-23 18:08 | 55.71902 | -2.92209 | 17688 ft | 390 kts | 147° |
| 2026-04-23 18:08 | 55.69604 | -2.89615 | 18299 ft | 393 kts | 147° |
| 2026-04-23 18:08 | 55.67284 | -2.87000 | 18868 ft | 396 kts | 147° |
| 2026-04-23 18:09 | 55.64949 | -2.84372 | 19431 ft | 400 kts | 147° |
| 2026-04-23 18:09 | 55.62590 | -2.81721 | 19957 ft | 404 kts | 147° |
| 2026-04-23 18:09 | 55.60204 | -2.79043 | 20481 ft | 407 kts | 147° |
| 2026-04-23 18:09 | 55.57802 | -2.76350 | 21006 ft | 410 kts | 147° |
| 2026-04-23 18:10 | 55.55376 | -2.73635 | 21516 ft | 414 kts | 147° |
| 2026-04-23 18:10 | 55.52935 | -2.70908 | 22005 ft | 418 kts | 147° |
| 2026-04-23 18:10 | 55.50470 | -2.68158 | 22507 ft | 421 kts | 147° |
| 2026-04-23 18:10 | 55.47989 | -2.65392 | 23003 ft | 424 kts | 147° |
| 2026-04-23 18:11 | 55.45486 | -2.62607 | 23479 ft | 427 kts | 147° |
| 2026-04-23 18:11 | 55.42965 | -2.59806 | 23955 ft | 430 kts | 147° |
| 2026-04-23 18:11 | 55.40420 | -2.56983 | 24422 ft | 434 kts | 147° |
| 2026-04-23 18:11 | 55.37891 | -2.54183 | 24893 ft | 436 kts | 147° |
| 2026-04-23 18:12 | 55.35316 | -2.51336 | 25368 ft | 439 kts | 147° |
| 2026-04-23 18:12 | 55.32725 | -2.48476 | 25837 ft | 441 kts | 147° |
| 2026-04-23 18:12 | 55.30121 | -2.45605 | 26290 ft | 443 kts | 147° |
| 2026-04-23 18:12 | 55.27561 | -2.42590 | 26716 ft | 445 kts | 141° |
| 2026-04-23 18:13 | 55.25127 | -2.39222 | 27145 ft | 447 kts | 142° |
| 2026-04-23 18:13 | 55.22661 | -2.35891 | 27559 ft | 449 kts | 142° |
| 2026-04-23 18:13 | 55.20170 | -2.32568 | 27963 ft | 451 kts | 142° |
| 2026-04-23 18:13 | 55.17663 | -2.29245 | 28351 ft | 453 kts | 142° |
| 2026-04-23 18:14 | 55.15143 | -2.25914 | 28732 ft | 455 kts | 143° |
| 2026-04-23 18:14 | 55.12614 | -2.22579 | 29120 ft | 456 kts | 143° |
| 2026-04-23 18:14 | 55.10072 | -2.19232 | 29514 ft | 457 kts | 143° |
| 2026-04-23 18:14 | 55.07525 | -2.15884 | 29863 ft | 460 kts | 143° |
| 2026-04-23 18:15 | 55.04969 | -2.12529 | 30238 ft | 460 kts | 143° |
| 2026-04-23 18:15 | 55.02410 | -2.09174 | 30678 ft | 460 kts | 143° |
| 2026-04-23 18:15 | 54.99851 | -2.05826 | 31123 ft | 459 kts | 143° |
| 2026-04-23 18:15 | 54.97302 | -2.02497 | 31573 ft | 458 kts | 143° |
| 2026-04-23 18:16 | 54.94758 | -1.99181 | 32021 ft | 456 kts | 144° |
| 2026-04-23 18:16 | 54.92221 | -1.95879 | 32479 ft | 454 kts | 144° |
| 2026-04-23 18:16 | 54.89732 | -1.92642 | 32931 ft | 451 kts | 144° |
| 2026-04-23 18:17 | 54.84728 | -1.86153 | 33818 ft | 447 kts | 144° |
| 2026-04-23 18:17 | 54.82236 | -1.82929 | 34243 ft | 445 kts | 144° |
| 2026-04-23 18:17 | 54.79756 | -1.79726 | 34652 ft | 444 kts | 144° |
| 2026-04-23 18:17 | 54.77283 | -1.76535 | 35026 ft | 443 kts | 144° |
| 2026-04-23 18:18 | 54.74814 | -1.73357 | 35362 ft | 443 kts | 144° |
| 2026-04-23 18:18 | 54.72339 | -1.70175 | 35680 ft | 442 kts | 144° |
| 2026-04-23 18:18 | 54.69869 | -1.67005 | 35981 ft | 442 kts | 144° |
| 2026-04-23 18:18 | 54.67397 | -1.63837 | 36275 ft | 442 kts | 144° |
| 2026-04-23 18:19 | 54.64924 | -1.60672 | 36546 ft | 442 kts | 144° |
| 2026-04-23 18:19 | 54.62444 | -1.57504 | 36808 ft | 443 kts | 144° |
| 2026-04-23 18:19 | 54.59998 | -1.54384 | 37060 ft | 443 kts | 144° |
| 2026-04-23 18:19 | 54.57521 | -1.51229 | 37309 ft | 443 kts | 144° |
| 2026-04-23 18:20 | 54.55040 | -1.48074 | 37553 ft | 443 kts | 144° |
| 2026-04-23 18:20 | 54.52560 | -1.44925 | 37790 ft | 443 kts | 144° |
| 2026-04-23 18:20 | 54.50075 | -1.41774 | 38022 ft | 443 kts | 144° |
| 2026-04-23 18:20 | 54.47593 | -1.38634 | 38248 ft | 443 kts | 144° |
| 2026-04-23 18:21 | 54.45110 | -1.35495 | 38472 ft | 442 kts | 144° |
| 2026-04-23 18:21 | 54.42630 | -1.32365 | 38683 ft | 442 kts | 144° |
| 2026-04-23 18:21 | 54.40144 | -1.29233 | 38888 ft | 442 kts | 144° |
| 2026-04-23 18:21 | 54.37668 | -1.26117 | 39081 ft | 442 kts | 144° |
| 2026-04-23 18:22 | 54.35191 | -1.23007 | 39267 ft | 441 kts | 144° |
| 2026-04-23 18:22 | 54.32717 | -1.19903 | 39443 ft | 441 kts | 144° |
| 2026-04-23 18:22 | 54.27798 | -1.13747 | 39471 ft | 439 kts | 144° |
| 2026-04-23 18:23 | 54.20389 | -1.04511 | 39452 ft | 439 kts | 144° |
| 2026-04-23 18:24 | 54.12977 | -0.95311 | 39452 ft | 440 kts | 144° |
| 2026-04-23 18:25 | 54.05550 | -0.86129 | 39453 ft | 439 kts | 144° |
| 2026-04-23 18:25 | 54.00539 | -0.80153 | 39471 ft | 439 kts | 146° |
| 2026-04-23 18:26 | 53.95505 | -0.74243 | 39468 ft | 440 kts | 145° |
| 2026-04-23 18:26 | 53.90457 | -0.68325 | 39465 ft | 441 kts | 145° |
| 2026-04-23 18:27 | 53.85444 | -0.62462 | 39465 ft | 441 kts | 145° |
| 2026-04-23 18:27 | 53.80391 | -0.56571 | 39477 ft | 441 kts | 145° |
| 2026-04-23 18:28 | 53.75335 | -0.50694 | 39470 ft | 441 kts | 145° |
| 2026-04-23 18:28 | 53.70281 | -0.44837 | 39481 ft | 441 kts | 146° |
| 2026-04-23 18:29 | 53.65221 | -0.39003 | 39476 ft | 441 kts | 146° |
| 2026-04-23 18:29 | 53.60149 | -0.33172 | 39474 ft | 441 kts | 146° |
| 2026-04-23 18:29 | 53.57768 | -0.29948 | 39457 ft | 440 kts | 132° |
| 2026-04-23 18:30 | 53.55863 | -0.25932 | 39497 ft | 440 kts | 128° |
| 2026-04-23 18:30 | 53.52092 | -0.17777 | 39484 ft | 442 kts | 127° |
| 2026-04-23 18:31 | 53.48368 | -0.09560 | 39484 ft | 442 kts | 127° |
| 2026-04-23 18:31 | 53.45283 | -0.02729 | 39477 ft | 442 kts | 127° |
| 2026-04-23 18:32 | 53.41569 | 0.05477 | 39480 ft | 440 kts | 128° |
| 2026-04-23 18:32 | 53.37906 | 0.13543 | 39477 ft | 430 kts | 129° |
| 2026-04-23 18:33 | 53.33713 | 0.22748 | 39470 ft | 427 kts | 129° |
| 2026-04-23 18:33 | 53.30688 | 0.29365 | 39463 ft | 427 kts | 129° |
| 2026-04-23 18:34 | 53.27080 | 0.37240 | 39455 ft | 427 kts | 129° |
| 2026-04-23 18:34 | 53.23462 | 0.45108 | 39453 ft | 427 kts | 129° |
| 2026-04-23 18:35 | 53.19861 | 0.52915 | 39456 ft | 427 kts | 129° |
| 2026-04-23 18:35 | 53.16235 | 0.60751 | 39455 ft | 427 kts | 129° |
| 2026-04-23 18:36 | 53.12603 | 0.68578 | 39463 ft | 427 kts | 129° |
| 2026-04-23 18:36 | 53.08962 | 0.76397 | 39450 ft | 427 kts | 129° |
| 2026-04-23 18:37 | 53.05317 | 0.84203 | 39442 ft | 427 kts | 129° |
| 2026-04-23 18:37 | 53.01667 | 0.91994 | 39439 ft | 426 kts | 130° |
| 2026-04-23 18:38 | 52.98140 | 0.99910 | 39420 ft | 428 kts | 119° |
| 2026-04-23 18:38 | 52.95900 | 1.09087 | 39411 ft | 431 kts | 114° |
| 2026-04-23 18:39 | 52.93756 | 1.18333 | 39453 ft | 432 kts | 113° |
| 2026-04-23 18:39 | 52.91633 | 1.27645 | 39454 ft | 432 kts | 113° |
| 2026-04-23 18:40 | 52.89507 | 1.36968 | 39449 ft | 432 kts | 113° |
| 2026-04-23 18:40 | 52.87379 | 1.46256 | 39444 ft | 431 kts | 113° |
| 2026-04-23 18:41 | 52.85242 | 1.55546 | 39448 ft | 432 kts | 114° |
| 2026-04-23 18:41 | 52.83099 | 1.64820 | 39447 ft | 431 kts | 114° |
| 2026-04-23 18:42 | 52.78789 | 1.83352 | 39448 ft | 432 kts | 114° |
| 2026-04-23 18:43 | 52.76624 | 1.92604 | 39448 ft | 431 kts | 114° |
| 2026-04-23 18:43 | 52.74467 | 2.01777 | 39446 ft | 431 kts | 114° |
| 2026-04-23 18:44 | 52.72292 | 2.10991 | 39449 ft | 431 kts | 114° |
| 2026-04-23 18:44 | 52.70110 | 2.20191 | 39445 ft | 431 kts | 114° |
| 2026-04-23 18:45 | 52.67921 | 2.29387 | 39441 ft | 431 kts | 114° |
| 2026-04-23 18:45 | 52.65713 | 2.38573 | 39440 ft | 430 kts | 116° |
| 2026-04-23 18:46 | 52.62688 | 2.46973 | 39430 ft | 427 kts | 124° |
| 2026-04-23 18:46 | 52.59571 | 2.55221 | 39437 ft | 428 kts | 124° |
| 2026-04-23 18:47 | 52.56419 | 2.63524 | 39430 ft | 427 kts | 124° |
| 2026-04-23 18:47 | 52.53265 | 2.71805 | 39432 ft | 427 kts | 124° |
| 2026-04-23 18:48 | 52.50103 | 2.80077 | 39430 ft | 428 kts | 124° |
| 2026-04-23 18:48 | 52.46934 | 2.88345 | 39431 ft | 428 kts | 124° |
| 2026-04-23 18:49 | 52.43760 | 2.96596 | 39432 ft | 428 kts | 124° |
| 2026-04-23 18:49 | 52.40579 | 3.04838 | 39431 ft | 428 kts | 124° |
| 2026-04-23 18:50 | 52.37930 | 3.11681 | 39431 ft | 427 kts | 124° |
| 2026-04-23 18:50 | 52.34222 | 3.21230 | 39431 ft | 428 kts | 124° |
| 2026-04-23 18:51 | 52.31016 | 3.29459 | 39431 ft | 428 kts | 124° |
| 2026-04-23 18:51 | 52.27816 | 3.37644 | 39431 ft | 428 kts | 124° |
| 2026-04-23 18:52 | 52.24607 | 3.45828 | 39430 ft | 428 kts | 124° |
| 2026-04-23 18:52 | 52.21395 | 3.53991 | 39422 ft | 427 kts | 124° |
| 2026-04-23 18:53 | 52.18199 | 3.62090 | 39422 ft | 428 kts | 124° |
| 2026-04-23 18:53 | 52.14974 | 3.70234 | 39420 ft | 428 kts | 124° |
| 2026-04-23 18:54 | 52.11745 | 3.78363 | 39412 ft | 427 kts | 124° |
| 2026-04-23 18:54 | 52.08511 | 3.86477 | 39404 ft | 427 kts | 124° |
| 2026-04-23 18:55 | 52.05274 | 3.94575 | 39405 ft | 427 kts | 124° |
| 2026-04-23 18:55 | 52.02031 | 4.02664 | 39402 ft | 427 kts | 124° |
| 2026-04-23 18:56 | 51.99334 | 4.09369 | 39403 ft | 427 kts | 124° |
| 2026-04-23 18:56 | 51.95529 | 4.18801 | 39403 ft | 427 kts | 124° |
| 2026-04-23 18:57 | 51.92270 | 4.26851 | 39404 ft | 427 kts | 124° |
| 2026-04-23 18:57 | 51.89006 | 4.34889 | 39404 ft | 427 kts | 124° |
| 2026-04-23 18:58 | 51.85737 | 4.42916 | 39396 ft | 427 kts | 124° |
| 2026-04-23 18:58 | 51.82477 | 4.50893 | 39396 ft | 428 kts | 124° |
| 2026-04-23 18:59 | 51.79191 | 4.58908 | 39395 ft | 428 kts | 124° |
| 2026-04-23 18:59 | 51.75897 | 4.66922 | 39396 ft | 428 kts | 124° |
| 2026-04-23 19:00 | 51.72604 | 4.74904 | 39387 ft | 427 kts | 124° |
| 2026-04-23 19:00 | 51.69305 | 4.82878 | 39385 ft | 427 kts | 124° |
| 2026-04-23 19:01 | 51.66003 | 4.90835 | 39377 ft | 427 kts | 124° |